Terminal Aerodrome Forecast
Issued by NWS

Home | Current Version | Previous Version | Text Only | Print | Product List | Glossary On
Versions: 1 2 3 4 5 6 7 8 9 10 11 12
702
FTUS43 KEAX 010538
TAFMKC
TAF
KMKC 010538Z 0106/0206 27007KT P6SM SCT250
     FM011300 26006KT P6SM SCT025
     FM011600 27007KT P6SM SCT200=

USA.gov is the U.S. government's official web portal to all federal, state and local government web resources and services.